sensor_id;sensor_type;location;lat;lon;timestamp;P1;durP1;ratioP1;P2;durP2;ratioP2
84883;SDS011;75145;49.188;8.122;2024-03-02T00:02:23;11.00;;;5.82;;
84883;SDS011;75145;49.188;8.122;2024-03-02T00:04:48;9.70;;;6.00;;
84883;SDS011;75145;49.188;8.122;2024-03-02T00:07:14;13.35;;;6.18;;
84883;SDS011;75145;49.188;8.122;2024-03-02T00:09:40;11.02;;;5.85;;
84883;SDS011;75145;49.188;8.122;2024-03-02T00:12:05;11.43;;;6.65;;
84883;SDS011;75145;49.188;8.122;2024-03-02T00:14:31;9.80;;;5.60;;
84883;SDS011;75145;49.188;8.122;2024-03-02T00:16:57;13.18;;;7.30;;
84883;SDS011;75145;49.188;8.122;2024-03-02T00:19:22;10.80;;;6.95;;
84883;SDS011;75145;49.188;8.122;2024-03-02T00:21:48;10.27;;;6.78;;
84883;SDS011;75145;49.188;8.122;2024-03-02T00:24:29;11.98;;;6.32;;
84883;SDS011;75145;49.188;8.122;2024-03-02T00:26:57;9.20;;;5.72;;
84883;SDS011;75145;49.188;8.122;2024-03-02T00:29:22;9.30;;;5.63;;
84883;SDS011;75145;49.188;8.122;2024-03-02T00:31:49;10.82;;;5.75;;
84883;SDS011;75145;49.188;8.122;2024-03-02T00:34:14;8.95;;;5.28;;
84883;SDS011;75145;49.188;8.122;2024-03-02T00:36:43;10.88;;;6.20;;
84883;SDS011;75145;49.188;8.122;2024-03-02T00:39:11;9.57;;;5.97;;
84883;SDS011;75145;49.188;8.122;2024-03-02T00:41:40;8.88;;;5.65;;
84883;SDS011;75145;49.188;8.122;2024-03-02T00:44:07;9.13;;;5.68;;
84883;SDS011;75145;49.188;8.122;2024-03-02T00:46:36;8.90;;;5.65;;
84883;SDS011;75145;49.188;8.122;2024-03-02T00:49:03;9.02;;;5.40;;
84883;SDS011;75145;49.188;8.122;2024-03-02T00:51:51;9.68;;;5.63;;
84883;SDS011;75145;49.188;8.122;2024-03-02T00:54:21;7.97;;;5.25;;
84883;SDS011;75145;49.188;8.122;2024-03-02T00:56:49;15.63;;;6.40;;
84883;SDS011;75145;49.188;8.122;2024-03-02T00:59:15;10.80;;;6.20;;
84883;SDS011;75145;49.188;8.122;2024-03-02T01:01:41;13.48;;;6.38;;
84883;SDS011;75145;49.188;8.122;2024-03-02T01:04:07;11.35;;;6.13;;
84883;SDS011;75145;49.188;8.122;2024-03-02T01:06:33;8.75;;;5.63;;
84883;SDS011;75145;49.188;8.122;2024-03-02T01:09:02;8.27;;;5.10;;
84883;SDS011;75145;49.188;8.122;2024-03-02T01:11:28;13.75;;;6.18;;
84883;SDS011;75145;49.188;8.122;2024-03-02T01:13:53;9.45;;;5.15;;
84883;SDS011;75145;49.188;8.122;2024-03-02T01:16:19;11.82;;;5.13;;
84883;SDS011;75145;49.188;8.122;2024-03-02T01:18:45;10.68;;;6.03;;
84883;SDS011;75145;49.188;8.122;2024-03-02T01:21:10;8.95;;;5.50;;
84883;SDS011;75145;49.188;8.122;2024-03-02T01:23:35;8.83;;;4.77;;
84883;SDS011;75145;49.188;8.122;2024-03-02T01:26:01;8.67;;;5.27;;
84883;SDS011;75145;49.188;8.122;2024-03-02T01:28:26;9.52;;;5.13;;
84883;SDS011;75145;49.188;8.122;2024-03-02T01:30:52;9.15;;;4.95;;
84883;SDS011;75145;49.188;8.122;2024-03-02T01:33:17;7.37;;;4.07;;
84883;SDS011;75145;49.188;8.122;2024-03-02T01:35:44;5.95;;;4.10;;
84883;SDS011;75145;49.188;8.122;2024-03-02T01:38:10;7.78;;;4.43;;
84883;SDS011;75145;49.188;8.122;2024-03-02T01:40:35;6.67;;;4.47;;
84883;SDS011;75145;49.188;8.122;2024-03-02T01:43:01;6.93;;;4.25;;
84883;SDS011;75145;49.188;8.122;2024-03-02T01:45:28;8.68;;;5.18;;
84883;SDS011;75145;49.188;8.122;2024-03-02T01:47:53;11.13;;;6.40;;
84883;SDS011;75145;49.188;8.122;2024-03-02T01:50:26;8.65;;;4.38;;
84883;SDS011;75145;49.188;8.122;2024-03-02T01:52:56;5.63;;;3.63;;
84883;SDS011;75145;49.188;8.122;2024-03-02T01:55:22;7.93;;;4.22;;
84883;SDS011;75145;49.188;8.122;2024-03-02T01:57:48;8.68;;;4.70;;
84883;SDS011;75145;49.188;8.122;2024-03-02T02:00:14;6.95;;;3.80;;
84883;SDS011;75145;49.188;8.122;2024-03-02T02:02:40;6.95;;;3.90;;
84883;SDS011;75145;49.188;8.122;2024-03-02T02:05:06;5.78;;;3.97;;
84883;SDS011;75145;49.188;8.122;2024-03-02T02:07:31;6.65;;;4.20;;
84883;SDS011;75145;49.188;8.122;2024-03-02T02:09:57;6.00;;;3.70;;
84883;SDS011;75145;49.188;8.122;2024-03-02T02:12:22;7.53;;;3.85;;
84883;SDS011;75145;49.188;8.122;2024-03-02T02:14:48;6.80;;;4.03;;
84883;SDS011;75145;49.188;8.122;2024-03-02T02:17:15;8.50;;;4.35;;
84883;SDS011;75145;49.188;8.122;2024-03-02T02:19:41;7.07;;;4.18;;
84883;SDS011;75145;49.188;8.122;2024-03-02T02:22:06;5.43;;;3.50;;
84883;SDS011;75145;49.188;8.122;2024-03-02T02:24:32;5.70;;;3.57;;
84883;SDS011;75145;49.188;8.122;2024-03-02T02:26:57;5.53;;;3.70;;
84883;SDS011;75145;49.188;8.122;2024-03-02T02:29:22;7.67;;;3.70;;
84883;SDS011;75145;49.188;8.122;2024-03-02T02:31:48;5.47;;;3.80;;
84883;SDS011;75145;49.188;8.122;2024-03-02T02:34:14;6.40;;;4.10;;
84883;SDS011;75145;49.188;8.122;2024-03-02T02:36:39;6.50;;;3.45;;
84883;SDS011;75145;49.188;8.122;2024-03-02T02:39:05;6.65;;;4.00;;
84883;SDS011;75145;49.188;8.122;2024-03-02T02:41:32;5.45;;;3.80;;
84883;SDS011;75145;49.188;8.122;2024-03-02T02:43:58;6.82;;;3.88;;
84883;SDS011;75145;49.188;8.122;2024-03-02T02:46:23;4.88;;;3.42;;
84883;SDS011;75145;49.188;8.122;2024-03-02T02:48:49;6.65;;;3.80;;
84883;SDS011;75145;49.188;8.122;2024-03-02T02:51:16;6.45;;;3.70;;
84883;SDS011;75145;49.188;8.122;2024-03-02T02:53:41;7.07;;;3.63;;
84883;SDS011;75145;49.188;8.122;2024-03-02T02:56:07;6.60;;;4.15;;
84883;SDS011;75145;49.188;8.122;2024-03-02T02:58:32;6.13;;;3.77;;
84883;SDS011;75145;49.188;8.122;2024-03-02T03:00:57;5.43;;;4.10;;
84883;SDS011;75145;49.188;8.122;2024-03-02T03:03:22;7.00;;;3.50;;
84883;SDS011;75145;49.188;8.122;2024-03-02T03:05:48;4.53;;;3.53;;
84883;SDS011;75145;49.188;8.122;2024-03-02T03:08:13;7.80;;;4.38;;
84883;SDS011;75145;49.188;8.122;2024-03-02T03:10:40;6.95;;;4.20;;
84883;SDS011;75145;49.188;8.122;2024-03-02T03:13:06;5.25;;;3.63;;
84883;SDS011;75145;49.188;8.122;2024-03-02T03:15:34;7.72;;;3.85;;
84883;SDS011;75145;49.188;8.122;2024-03-02T03:18:00;5.63;;;3.50;;
84883;SDS011;75145;49.188;8.122;2024-03-02T03:20:25;4.97;;;3.77;;
84883;SDS011;75145;49.188;8.122;2024-03-02T03:22:50;4.97;;;3.70;;
84883;SDS011;75145;49.188;8.122;2024-03-02T03:25:15;6.83;;;4.33;;
84883;SDS011;75145;49.188;8.122;2024-03-02T03:27:41;5.33;;;3.50;;
84883;SDS011;75145;49.188;8.122;2024-03-02T03:30:06;5.78;;;3.20;;
84883;SDS011;75145;49.188;8.122;2024-03-02T03:32:32;5.38;;;3.60;;
84883;SDS011;75145;49.188;8.122;2024-03-02T03:34:57;6.00;;;3.60;;
84883;SDS011;75145;49.188;8.122;2024-03-02T03:37:23;5.57;;;3.47;;
84883;SDS011;75145;49.188;8.122;2024-03-02T03:39:49;6.78;;;4.00;;
84883;SDS011;75145;49.188;8.122;2024-03-02T03:42:14;5.77;;;3.50;;
84883;SDS011;75145;49.188;8.122;2024-03-02T03:44:39;5.65;;;3.53;;
84883;SDS011;75145;49.188;8.122;2024-03-02T03:47:06;5.75;;;3.75;;
84883;SDS011;75145;49.188;8.122;2024-03-02T03:49:32;7.07;;;4.00;;
84883;SDS011;75145;49.188;8.122;2024-03-02T03:51:57;7.47;;;3.60;;
84883;SDS011;75145;49.188;8.122;2024-03-02T03:54:22;5.47;;;3.50;;
84883;SDS011;75145;49.188;8.122;2024-03-02T03:56:47;7.05;;;3.63;;
84883;SDS011;75145;49.188;8.122;2024-03-02T03:59:13;4.55;;;3.15;;
84883;SDS011;75145;49.188;8.122;2024-03-02T04:01:38;6.23;;;3.80;;
84883;SDS011;75145;49.188;8.122;2024-03-02T04:04:03;5.37;;;3.80;;
84883;SDS011;75145;49.188;8.122;2024-03-02T04:06:29;6.37;;;3.90;;
84883;SDS011;75145;49.188;8.122;2024-03-02T04:08:54;6.15;;;3.60;;
84883;SDS011;75145;49.188;8.122;2024-03-02T04:11:20;6.22;;;3.75;;
84883;SDS011;75145;49.188;8.122;2024-03-02T04:13:45;4.43;;;3.22;;
84883;SDS011;75145;49.188;8.122;2024-03-02T04:16:10;8.47;;;4.07;;
84883;SDS011;75145;49.188;8.122;2024-03-02T04:18:37;6.95;;;4.15;;
84883;SDS011;75145;49.188;8.122;2024-03-02T04:21:03;7.55;;;4.20;;
84883;SDS011;75145;49.188;8.122;2024-03-02T04:23:28;6.00;;;3.92;;
84883;SDS011;75145;49.188;8.122;2024-03-02T04:25:54;6.93;;;4.10;;
84883;SDS011;75145;49.188;8.122;2024-03-02T04:28:19;6.05;;;3.65;;
84883;SDS011;75145;49.188;8.122;2024-03-02T04:30:44;7.80;;;3.60;;
84883;SDS011;75145;49.188;8.122;2024-03-02T04:33:10;7.17;;;4.40;;
84883;SDS011;75145;49.188;8.122;2024-03-02T04:35:38;6.10;;;3.70;;
84883;SDS011;75145;49.188;8.122;2024-03-02T04:38:03;6.18;;;4.05;;
84883;SDS011;75145;49.188;8.122;2024-03-02T04:40:28;6.22;;;4.20;;
84883;SDS011;75145;49.188;8.122;2024-03-02T04:42:54;6.23;;;3.80;;
84883;SDS011;75145;49.188;8.122;2024-03-02T04:45:19;7.10;;;3.77;;
84883;SDS011;75145;49.188;8.122;2024-03-02T04:47:44;7.82;;;4.22;;
84883;SDS011;75145;49.188;8.122;2024-03-02T04:50:10;6.43;;;3.90;;
84883;SDS011;75145;49.188;8.122;2024-03-02T04:52:35;5.90;;;4.43;;
84883;SDS011;75145;49.188;8.122;2024-03-02T04:55:00;9.70;;;4.55;;
84883;SDS011;75145;49.188;8.122;2024-03-02T04:57:41;6.50;;;3.90;;
84883;SDS011;75145;49.188;8.122;2024-03-02T05:00:07;7.65;;;3.95;;
84883;SDS011;75145;49.188;8.122;2024-03-02T05:02:33;5.78;;;4.10;;
84883;SDS011;75145;49.188;8.122;2024-03-02T05:04:59;5.80;;;3.67;;
84883;SDS011;75145;49.188;8.122;2024-03-02T05:07:24;7.87;;;4.07;;
84883;SDS011;75145;49.188;8.122;2024-03-02T05:09:50;7.30;;;4.00;;
84883;SDS011;75145;49.188;8.122;2024-03-02T05:12:15;7.33;;;4.00;;
84883;SDS011;75145;49.188;8.122;2024-03-02T05:14:59;9.60;;;4.13;;
84883;SDS011;75145;49.188;8.122;2024-03-02T05:17:24;7.43;;;3.78;;
84883;SDS011;75145;49.188;8.122;2024-03-02T05:19:49;6.60;;;3.50;;
84883;SDS011;75145;49.188;8.122;2024-03-02T05:22:15;6.20;;;3.40;;
84883;SDS011;75145;49.188;8.122;2024-03-02T05:24:41;5.25;;;3.50;;
84883;SDS011;75145;49.188;8.122;2024-03-02T05:27:06;5.73;;;3.40;;
84883;SDS011;75145;49.188;8.122;2024-03-02T05:29:32;5.88;;;3.67;;
84883;SDS011;75145;49.188;8.122;2024-03-02T05:31:57;5.63;;;3.45;;
84883;SDS011;75145;49.188;8.122;2024-03-02T05:34:23;5.93;;;3.57;;
84883;SDS011;75145;49.188;8.122;2024-03-02T05:36:48;4.53;;;3.07;;
84883;SDS011;75145;49.188;8.122;2024-03-02T05:39:13;5.23;;;3.40;;
84883;SDS011;75145;49.188;8.122;2024-03-02T05:41:39;5.33;;;3.43;;
84883;SDS011;75145;49.188;8.122;2024-03-02T05:44:04;5.88;;;3.75;;
84883;SDS011;75145;49.188;8.122;2024-03-02T05:46:30;7.40;;;3.97;;
84883;SDS011;75145;49.188;8.122;2024-03-02T05:48:55;8.57;;;3.95;;
84883;SDS011;75145;49.188;8.122;2024-03-02T05:51:20;5.40;;;3.35;;
84883;SDS011;75145;49.188;8.122;2024-03-02T05:53:46;7.13;;;3.83;;
84883;SDS011;75145;49.188;8.122;2024-03-02T05:56:11;6.70;;;3.70;;
84883;SDS011;75145;49.188;8.122;2024-03-02T05:58:37;6.10;;;3.40;;
84883;SDS011;75145;49.188;8.122;2024-03-02T06:01:28;7.13;;;3.42;;
84883;SDS011;75145;49.188;8.122;2024-03-02T06:03:57;5.72;;;3.67;;
84883;SDS011;75145;49.188;8.122;2024-03-02T06:06:23;6.50;;;3.55;;
84883;SDS011;75145;49.188;8.122;2024-03-02T06:08:49;4.80;;;3.38;;
84883;SDS011;75145;49.188;8.122;2024-03-02T06:11:15;5.47;;;4.05;;
84883;SDS011;75145;49.188;8.122;2024-03-02T06:13:40;5.05;;;3.70;;
84883;SDS011;75145;49.188;8.122;2024-03-02T06:16:06;7.17;;;3.57;;
84883;SDS011;75145;49.188;8.122;2024-03-02T06:18:31;6.22;;;3.80;;
84883;SDS011;75145;49.188;8.122;2024-03-02T06:20:57;5.40;;;3.80;;
84883;SDS011;75145;49.188;8.122;2024-03-02T06:23:22;7.50;;;4.37;;
84883;SDS011;75145;49.188;8.122;2024-03-02T06:25:49;7.43;;;3.63;;
84883;SDS011;75145;49.188;8.122;2024-03-02T06:28:15;7.07;;;3.65;;
84883;SDS011;75145;49.188;8.122;2024-03-02T06:30:41;6.03;;;3.83;;
84883;SDS011;75145;49.188;8.122;2024-03-02T06:33:07;5.90;;;3.60;;
84883;SDS011;75145;49.188;8.122;2024-03-02T06:35:32;7.93;;;3.80;;
84883;SDS011;75145;49.188;8.122;2024-03-02T06:37:58;6.28;;;3.80;;
84883;SDS011;75145;49.188;8.122;2024-03-02T06:40:23;5.50;;;3.80;;
84883;SDS011;75145;49.188;8.122;2024-03-02T06:42:48;7.10;;;3.97;;
84883;SDS011;75145;49.188;8.122;2024-03-02T06:45:14;7.07;;;3.97;;
84883;SDS011;75145;49.188;8.122;2024-03-02T06:47:39;7.25;;;3.67;;
84883;SDS011;75145;49.188;8.122;2024-03-02T06:50:04;5.73;;;3.90;;
84883;SDS011;75145;49.188;8.122;2024-03-02T06:52:30;7.22;;;4.18;;
84883;SDS011;75145;49.188;8.122;2024-03-02T06:54:55;5.37;;;3.97;;
84883;SDS011;75145;49.188;8.122;2024-03-02T06:57:20;7.03;;;4.27;;
84883;SDS011;75145;49.188;8.122;2024-03-02T06:59:46;7.30;;;4.38;;
84883;SDS011;75145;49.188;8.122;2024-03-02T07:02:12;6.55;;;4.53;;
84883;SDS011;75145;49.188;8.122;2024-03-02T07:04:37;6.60;;;4.32;;
84883;SDS011;75145;49.188;8.122;2024-03-02T07:07:03;6.70;;;4.00;;
84883;SDS011;75145;49.188;8.122;2024-03-02T07:09:28;6.82;;;4.28;;
84883;SDS011;75145;49.188;8.122;2024-03-02T07:11:54;8.17;;;4.60;;
84883;SDS011;75145;49.188;8.122;2024-03-02T07:14:19;7.47;;;4.53;;
84883;SDS011;75145;49.188;8.122;2024-03-02T07:17:11;9.00;;;6.80;;
84883;SDS011;75145;49.188;8.122;2024-03-02T07:19:37;7.37;;;5.87;;
84883;SDS011;75145;49.188;8.122;2024-03-02T07:22:05;7.45;;;5.55;;
84883;SDS011;75145;49.188;8.122;2024-03-02T07:24:31;9.07;;;5.93;;
84883;SDS011;75145;49.188;8.122;2024-03-02T07:26:56;9.17;;;6.57;;
84883;SDS011;75145;49.188;8.122;2024-03-02T07:29:21;9.50;;;6.47;;
84883;SDS011;75145;49.188;8.122;2024-03-02T07:31:47;9.50;;;6.60;;
84883;SDS011;75145;49.188;8.122;2024-03-02T07:34:13;10.00;;;6.78;;
84883;SDS011;75145;49.188;8.122;2024-03-02T07:36:38;10.27;;;6.60;;
84883;SDS011;75145;49.188;8.122;2024-03-02T07:39:04;10.98;;;7.22;;
84883;SDS011;75145;49.188;8.122;2024-03-02T07:41:29;10.25;;;6.63;;
84883;SDS011;75145;49.188;8.122;2024-03-02T07:43:54;9.60;;;6.68;;
84883;SDS011;75145;49.188;8.122;2024-03-02T07:46:20;11.10;;;6.65;;
84883;SDS011;75145;49.188;8.122;2024-03-02T07:48:45;9.33;;;6.90;;
84883;SDS011;75145;49.188;8.122;2024-03-02T07:51:10;11.70;;;7.15;;
84883;SDS011;75145;49.188;8.122;2024-03-02T07:53:36;9.60;;;6.47;;
84883;SDS011;75145;49.188;8.122;2024-03-02T07:56:01;14.82;;;7.00;;
84883;SDS011;75145;49.188;8.122;2024-03-02T07:58:27;11.27;;;6.75;;
84883;SDS011;75145;49.188;8.122;2024-03-02T08:00:53;11.38;;;6.78;;
84883;SDS011;75145;49.188;8.122;2024-03-02T08:03:18;9.47;;;6.60;;
84883;SDS011;75145;49.188;8.122;2024-03-02T08:05:44;10.35;;;6.63;;
84883;SDS011;75145;49.188;8.122;2024-03-02T08:08:09;9.90;;;6.03;;
84883;SDS011;75145;49.188;8.122;2024-03-02T08:10:35;9.57;;;5.63;;
84883;SDS011;75145;49.188;8.122;2024-03-02T08:13:00;8.00;;;5.85;;
84883;SDS011;75145;49.188;8.122;2024-03-02T08:15:26;9.07;;;5.65;;
84883;SDS011;75145;49.188;8.122;2024-03-02T08:17:51;8.45;;;5.40;;
84883;SDS011;75145;49.188;8.122;2024-03-02T08:20:17;6.95;;;4.93;;
84883;SDS011;75145;49.188;8.122;2024-03-02T08:22:42;6.88;;;4.70;;
84883;SDS011;75145;49.188;8.122;2024-03-02T08:25:08;7.18;;;4.97;;
84883;SDS011;75145;49.188;8.122;2024-03-02T08:27:34;7.03;;;5.10;;
84883;SDS011;75145;49.188;8.122;2024-03-02T08:30:00;5.95;;;4.88;;
84883;SDS011;75145;49.188;8.122;2024-03-02T08:32:25;8.32;;;5.13;;
84883;SDS011;75145;49.188;8.122;2024-03-02T08:34:50;10.33;;;5.27;;
84883;SDS011;75145;49.188;8.122;2024-03-02T08:37:16;7.35;;;4.75;;
84883;SDS011;75145;49.188;8.122;2024-03-02T08:39:41;8.43;;;4.90;;
84883;SDS011;75145;49.188;8.122;2024-03-02T08:42:06;5.87;;;4.63;;
84883;SDS011;75145;49.188;8.122;2024-03-02T08:44:32;6.45;;;5.00;;
84883;SDS011;75145;49.188;8.122;2024-03-02T08:46:58;5.82;;;4.93;;
84883;SDS011;75145;49.188;8.122;2024-03-02T08:49:23;7.40;;;4.47;;
84883;SDS011;75145;49.188;8.122;2024-03-02T08:51:49;8.23;;;4.65;;
84883;SDS011;75145;49.188;8.122;2024-03-02T08:54:20;13.40;;;5.90;;
84883;SDS011;75145;49.188;8.122;2024-03-02T08:56:48;6.40;;;5.03;;
84883;SDS011;75145;49.188;8.122;2024-03-02T08:59:15;6.78;;;4.88;;
84883;SDS011;75145;49.188;8.122;2024-03-02T09:01:40;6.03;;;4.82;;
84883;SDS011;75145;49.188;8.122;2024-03-02T09:04:07;6.95;;;5.50;;
84883;SDS011;75145;49.188;8.122;2024-03-02T09:06:33;9.57;;;5.15;;
84883;SDS011;75145;49.188;8.122;2024-03-02T09:08:59;5.65;;;4.70;;
84883;SDS011;75145;49.188;8.122;2024-03-02T09:11:24;7.57;;;5.05;;
84883;SDS011;75145;49.188;8.122;2024-03-02T09:13:50;7.47;;;4.65;;
84883;SDS011;75145;49.188;8.122;2024-03-02T09:16:16;7.30;;;5.03;;
84883;SDS011;75145;49.188;8.122;2024-03-02T09:18:41;6.22;;;4.75;;
84883;SDS011;75145;49.188;8.122;2024-03-02T09:21:07;7.72;;;5.15;;
84883;SDS011;75145;49.188;8.122;2024-03-02T09:23:33;6.50;;;4.75;;
84883;SDS011;75145;49.188;8.122;2024-03-02T09:25:58;8.18;;;5.63;;
84883;SDS011;75145;49.188;8.122;2024-03-02T09:28:24;6.63;;;5.18;;
84883;SDS011;75145;49.188;8.122;2024-03-02T09:30:50;6.97;;;4.70;;
84883;SDS011;75145;49.188;8.122;2024-03-02T09:33:15;6.68;;;5.68;;
84883;SDS011;75145;49.188;8.122;2024-03-02T09:35:41;7.00;;;5.20;;
84883;SDS011;75145;49.188;8.122;2024-03-02T09:38:06;6.32;;;5.20;;
84883;SDS011;75145;49.188;8.122;2024-03-02T09:40:31;9.37;;;5.50;;
84883;SDS011;75145;49.188;8.122;2024-03-02T09:42:57;7.05;;;4.97;;
84883;SDS011;75145;49.188;8.122;2024-03-02T09:45:25;8.68;;;5.47;;
84883;SDS011;75145;49.188;8.122;2024-03-02T09:47:51;8.07;;;4.80;;
84883;SDS011;75145;49.188;8.122;2024-03-02T09:50:16;9.57;;;5.88;;
84883;SDS011;75145;49.188;8.122;2024-03-02T09:52:42;8.47;;;5.17;;
84883;SDS011;75145;49.188;8.122;2024-03-02T09:55:08;7.72;;;5.50;;
84883;SDS011;75145;49.188;8.122;2024-03-02T09:57:34;7.40;;;5.53;;
84883;SDS011;75145;49.188;8.122;2024-03-02T09:59:59;6.50;;;5.80;;
84883;SDS011;75145;49.188;8.122;2024-03-02T10:02:25;10.90;;;5.97;;
84883;SDS011;75145;49.188;8.122;2024-03-02T10:04:50;8.23;;;6.27;;
84883;SDS011;75145;49.188;8.122;2024-03-02T10:07:16;6.97;;;5.95;;
84883;SDS011;75145;49.188;8.122;2024-03-02T10:09:43;8.13;;;5.93;;
84883;SDS011;75145;49.188;8.122;2024-03-02T10:12:10;6.63;;;5.65;;
84883;SDS011;75145;49.188;8.122;2024-03-02T10:14:37;7.57;;;4.97;;
84883;SDS011;75145;49.188;8.122;2024-03-02T10:17:06;6.40;;;4.93;;
84883;SDS011;75145;49.188;8.122;2024-03-02T10:19:33;9.70;;;5.47;;
84883;SDS011;75145;49.188;8.122;2024-03-02T10:22:03;7.05;;;5.40;;
84883;SDS011;75145;49.188;8.122;2024-03-02T10:24:36;7.43;;;5.07;;
84883;SDS011;75145;49.188;8.122;2024-03-02T10:27:06;6.32;;;4.93;;
84883;SDS011;75145;49.188;8.122;2024-03-02T10:29:34;6.68;;;4.60;;
84883;SDS011;75145;49.188;8.122;2024-03-02T10:32:02;6.53;;;4.15;;
84883;SDS011;75145;49.188;8.122;2024-03-02T10:34:28;5.40;;;4.32;;
84883;SDS011;75145;49.188;8.122;2024-03-02T10:36:53;7.68;;;3.97;;
84883;SDS011;75145;49.188;8.122;2024-03-02T10:39:20;4.47;;;2.80;;
84883;SDS011;75145;49.188;8.122;2024-03-02T10:41:46;4.53;;;3.42;;
84883;SDS011;75145;49.188;8.122;2024-03-02T10:44:14;4.75;;;4.00;;
84883;SDS011;75145;49.188;8.122;2024-03-02T10:46:40;5.35;;;3.25;;
84883;SDS011;75145;49.188;8.122;2024-03-02T10:49:08;5.10;;;3.40;;
84883;SDS011;75145;49.188;8.122;2024-03-02T10:51:34;5.32;;;3.90;;
84883;SDS011;75145;49.188;8.122;2024-03-02T10:54:01;6.47;;;4.07;;
84883;SDS011;75145;49.188;8.122;2024-03-02T10:56:32;4.68;;;3.45;;
84883;SDS011;75145;49.188;8.122;2024-03-02T10:59:16;5.65;;;3.30;;
84883;SDS011;75145;49.188;8.122;2024-03-02T11:02:04;5.80;;;3.38;;
84883;SDS011;75145;49.188;8.122;2024-03-02T11:04:32;4.40;;;3.20;;
84883;SDS011;75145;49.188;8.122;2024-03-02T11:07:04;3.83;;;3.10;;
84883;SDS011;75145;49.188;8.122;2024-03-02T11:09:32;4.80;;;3.05;;
84883;SDS011;75145;49.188;8.122;2024-03-02T11:12:02;5.72;;;3.28;;
84883;SDS011;75145;49.188;8.122;2024-03-02T11:14:31;4.75;;;3.50;;
84883;SDS011;75145;49.188;8.122;2024-03-02T11:16:58;4.80;;;3.58;;
84883;SDS011;75145;49.188;8.122;2024-03-02T11:19:26;5.55;;;4.05;;
84883;SDS011;75145;49.188;8.122;2024-03-02T11:21:52;6.85;;;3.50;;
84883;SDS011;75145;49.188;8.122;2024-03-02T11:26:50;4.85;;;3.35;;
84883;SDS011;75145;49.188;8.122;2024-03-02T11:32:00;4.50;;;3.30;;
84883;SDS011;75145;49.188;8.122;2024-03-02T11:34:36;4.10;;;2.88;;
84883;SDS011;75145;49.188;8.122;2024-03-02T11:37:04;4.53;;;3.00;;
84883;SDS011;75145;49.188;8.122;2024-03-02T11:39:30;4.10;;;3.00;;
84883;SDS011;75145;49.188;8.122;2024-03-02T11:41:56;5.13;;;3.67;;
84883;SDS011;75145;49.188;8.122;2024-03-02T11:44:22;3.65;;;2.40;;
84883;SDS011;75145;49.188;8.122;2024-03-02T11:46:59;5.15;;;2.70;;
84883;SDS011;75145;49.188;8.122;2024-03-02T11:52:03;3.13;;;2.55;;
84883;SDS011;75145;49.188;8.122;2024-03-02T11:54:30;3.53;;;2.50;;
84883;SDS011;75145;49.188;8.122;2024-03-02T11:56:59;4.13;;;2.60;;
84883;SDS011;75145;49.188;8.122;2024-03-02T11:59:27;3.40;;;2.90;;
84883;SDS011;75145;49.188;8.122;2024-03-02T12:01:53;4.05;;;2.40;;
84883;SDS011;75145;49.188;8.122;2024-03-02T12:04:19;4.47;;;2.38;;
84883;SDS011;75145;49.188;8.122;2024-03-02T12:06:44;2.92;;;2.40;;
84883;SDS011;75145;49.188;8.122;2024-03-02T12:09:11;5.78;;;2.95;;
84883;SDS011;75145;49.188;8.122;2024-03-02T12:11:37;3.30;;;2.60;;
84883;SDS011;75145;49.188;8.122;2024-03-02T12:14:03;5.45;;;2.40;;
84883;SDS011;75145;49.188;8.122;2024-03-02T12:16:29;3.40;;;2.60;;
84883;SDS011;75145;49.188;8.122;2024-03-02T12:18:55;3.25;;;2.47;;
84883;SDS011;75145;49.188;8.122;2024-03-02T12:21:20;4.60;;;2.10;;
84883;SDS011;75145;49.188;8.122;2024-03-02T12:23:46;3.45;;;2.35;;
84883;SDS011;75145;49.188;8.122;2024-03-02T12:26:11;4.57;;;2.88;;
84883;SDS011;75145;49.188;8.122;2024-03-02T12:28:37;3.42;;;2.80;;
84883;SDS011;75145;49.188;8.122;2024-03-02T12:31:02;4.53;;;2.20;;
84883;SDS011;75145;49.188;8.122;2024-03-02T12:33:28;3.60;;;2.60;;
84883;SDS011;75145;49.188;8.122;2024-03-02T12:35:56;3.20;;;2.50;;
84883;SDS011;75145;49.188;8.122;2024-03-02T12:38:22;3.00;;;2.20;;
84883;SDS011;75145;49.188;8.122;2024-03-02T12:40:50;3.28;;;1.80;;
84883;SDS011;75145;49.188;8.122;2024-03-02T12:43:17;5.40;;;2.40;;
84883;SDS011;75145;49.188;8.122;2024-03-02T12:45:43;5.25;;;2.10;;
84883;SDS011;75145;49.188;8.122;2024-03-02T12:48:08;5.22;;;2.35;;
84883;SDS011;75145;49.188;8.122;2024-03-02T12:50:33;3.78;;;2.40;;
84883;SDS011;75145;49.188;8.122;2024-03-02T12:52:59;2.63;;;2.00;;
84883;SDS011;75145;49.188;8.122;2024-03-02T12:55:24;3.08;;;2.17;;
84883;SDS011;75145;49.188;8.122;2024-03-02T12:57:50;4.15;;;2.13;;
84883;SDS011;75145;49.188;8.122;2024-03-02T13:00:18;4.80;;;2.30;;
84883;SDS011;75145;49.188;8.122;2024-03-02T13:02:45;2.25;;;1.67;;
84883;SDS011;75145;49.188;8.122;2024-03-02T13:05:11;3.10;;;1.88;;
84883;SDS011;75145;49.188;8.122;2024-03-02T13:07:36;2.65;;;1.92;;
84883;SDS011;75145;49.188;8.122;2024-03-02T13:10:03;3.80;;;1.90;;
84883;SDS011;75145;49.188;8.122;2024-03-02T13:12:29;2.40;;;1.77;;
84883;SDS011;75145;49.188;8.122;2024-03-02T13:14:55;3.53;;;1.98;;
84883;SDS011;75145;49.188;8.122;2024-03-02T13:17:23;3.03;;;1.80;;
84883;SDS011;75145;49.188;8.122;2024-03-02T13:22:18;1.98;;;1.60;;
84883;SDS011;75145;49.188;8.122;2024-03-02T13:24:43;3.15;;;1.83;;
84883;SDS011;75145;49.188;8.122;2024-03-02T13:27:08;2.43;;;1.50;;
84883;SDS011;75145;49.188;8.122;2024-03-02T13:29:34;2.50;;;1.70;;
84883;SDS011;75145;49.188;8.122;2024-03-02T13:31:59;2.40;;;1.80;;
84883;SDS011;75145;49.188;8.122;2024-03-02T13:34:24;2.30;;;1.67;;
84883;SDS011;75145;49.188;8.122;2024-03-02T13:36:50;3.38;;;2.03;;
84883;SDS011;75145;49.188;8.122;2024-03-02T13:39:15;4.93;;;1.90;;
84883;SDS011;75145;49.188;8.122;2024-03-02T13:41:41;2.83;;;1.70;;
84883;SDS011;75145;49.188;8.122;2024-03-02T13:44:06;2.97;;;1.70;;
84883;SDS011;75145;49.188;8.122;2024-03-02T13:46:32;8.73;;;1.70;;
84883;SDS011;75145;49.188;8.122;2024-03-02T13:48:57;2.72;;;1.73;;
84883;SDS011;75145;49.188;8.122;2024-03-02T13:51:23;2.40;;;1.73;;
84883;SDS011;75145;49.188;8.122;2024-03-02T13:53:50;2.17;;;1.70;;
84883;SDS011;75145;49.188;8.122;2024-03-02T13:56:15;2.25;;;1.60;;
84883;SDS011;75145;49.188;8.122;2024-03-02T13:58:42;1.75;;;1.40;;
84883;SDS011;75145;49.188;8.122;2024-03-02T14:02:17;3.40;;;1.60;;
84883;SDS011;75145;49.188;8.122;2024-03-02T14:04:42;2.33;;;1.30;;
84883;SDS011;75145;49.188;8.122;2024-03-02T14:07:08;2.15;;;1.30;;
84883;SDS011;75145;49.188;8.122;2024-03-02T14:09:33;3.10;;;1.52;;
84883;SDS011;75145;49.188;8.122;2024-03-02T14:14:06;2.35;;;1.40;;
84883;SDS011;75145;49.188;8.122;2024-03-02T14:16:31;3.47;;;1.20;;
84883;SDS011;75145;49.188;8.122;2024-03-02T14:18:57;1.10;;;1.00;;
84883;SDS011;75145;49.188;8.122;2024-03-02T14:21:24;1.92;;;1.23;;
84883;SDS011;75145;49.188;8.122;2024-03-02T14:23:49;1.58;;;1.10;;
84883;SDS011;75145;49.188;8.122;2024-03-02T14:26:15;1.63;;;1.13;;
84883;SDS011;75145;49.188;8.122;2024-03-02T14:28:40;1.83;;;1.30;;
84883;SDS011;75145;49.188;8.122;2024-03-02T14:31:05;2.50;;;1.23;;
84883;SDS011;75145;49.188;8.122;2024-03-02T14:33:31;1.88;;;1.20;;
84883;SDS011;75145;49.188;8.122;2024-03-02T14:35:56;2.20;;;1.20;;
84883;SDS011;75145;49.188;8.122;2024-03-02T14:38:21;2.85;;;1.17;;
84883;SDS011;75145;49.188;8.122;2024-03-02T14:40:47;2.45;;;1.30;;
84883;SDS011;75145;49.188;8.122;2024-03-02T14:43:12;1.63;;;1.20;;
84883;SDS011;75145;49.188;8.122;2024-03-02T14:45:38;1.92;;;1.17;;
84883;SDS011;75145;49.188;8.122;2024-03-02T14:48:03;2.28;;;1.30;;
84883;SDS011;75145;49.188;8.122;2024-03-02T14:50:29;2.92;;;1.20;;
84883;SDS011;75145;49.188;8.122;2024-03-02T14:52:54;2.25;;;1.20;;
84883;SDS011;75145;49.188;8.122;2024-03-02T14:55:22;2.30;;;1.23;;